createdAt,value
2017-07-25T00:00:05.900Z,88.54
2017-07-25T00:00:46.789Z,87.87
2017-07-25T00:01:27.686Z,87.96
2017-07-25T00:02:08.573Z,88.45
2017-07-25T00:02:49.464Z,87.68
2017-07-25T00:03:30.359Z,89.69
2017-07-25T00:04:11.226Z,89.12
2017-07-25T00:04:52.104Z,88.83
2017-07-25T00:05:32.997Z,88.64
2017-07-25T00:06:13.884Z,88.73
2017-07-25T00:06:54.765Z,88.93
2017-07-25T00:07:35.648Z,89.02
2017-07-25T00:08:16.561Z,88.35
2017-07-25T00:08:57.440Z,88.35
2017-07-25T00:09:38.321Z,88.25
2017-07-25T00:10:19.224Z,88.97
2017-07-25T00:11:00.106Z,89.22
2017-07-25T00:11:40.993Z,87.87
2017-07-25T00:12:21.883Z,88.64
2017-07-25T00:13:02.781Z,89.12
2017-07-25T00:13:43.674Z,88.73
2017-07-25T00:14:24.590Z,88.93
2017-07-25T00:15:05.464Z,88.83
2017-07-25T00:15:46.369Z,87.96
2017-07-25T00:16:27.256Z,88.54
2017-07-25T00:17:08.141Z,88.2
2017-07-25T00:17:49.032Z,88.68
2017-07-25T00:18:29.933Z,88.97
2017-07-25T00:19:10.812Z,88.83
2017-07-25T00:19:51.707Z,88.45
2017-07-25T00:20:32.603Z,87.87
2017-07-25T00:21:13.490Z,87.87
2017-07-25T00:21:54.376Z,88.06
2017-07-25T00:22:35.278Z,87.96
2017-07-25T00:23:16.164Z,88.25
2017-07-25T00:23:57.055Z,88.64
2017-07-25T00:24:37.952Z,88.97
2017-07-25T00:25:18.842Z,89.74
2017-07-25T00:25:59.733Z,87.87
2017-07-25T00:26:40.630Z,88.16
2017-07-25T00:27:21.516Z,88.97
2017-07-25T00:28:02.435Z,88.16
2017-07-25T00:28:43.331Z,88.45
2017-07-25T00:29:24.213Z,88.83
2017-07-25T00:30:05.104Z,89.74
2017-07-25T00:30:46.010Z,88.25
2017-07-25T00:31:26.885Z,88.64
2017-07-25T00:32:07.776Z,88.73
2017-07-25T00:32:48.682Z,88.25
2017-07-25T00:33:29.565Z,88.73
2017-07-25T00:34:10.464Z,88.45
2017-07-25T00:34:51.361Z,88.64
2017-07-25T00:35:32.238Z,88.54
2017-07-25T00:36:13.125Z,88.83
2017-07-25T00:36:54.011Z,89.02
2017-07-25T00:37:34.898Z,88.93
2017-07-25T00:38:15.771Z,88.35
2017-07-25T00:38:56.660Z,88.16
2017-07-25T00:39:37.588Z,88.54
2017-07-25T00:40:18.479Z,88.35
2017-07-25T00:40:59.369Z,89.02
2017-07-25T00:41:40.255Z,88.93
2017-07-25T00:42:21.135Z,88.93
2017-07-25T00:43:02.025Z,88.68
2017-07-25T00:43:42.926Z,88.64
2017-07-25T00:44:23.809Z,88.64
2017-07-25T00:45:04.689Z,88.35
2017-07-25T00:45:45.581Z,88.93
2017-07-25T00:46:26.473Z,89.22
2017-07-25T00:47:07.365Z,88.54
2017-07-25T00:47:48.258Z,88.45
2017-07-25T00:48:29.146Z,89.79
2017-07-25T00:49:10.043Z,88.93
2017-07-25T00:49:50.937Z,88.83
2017-07-25T00:50:31.839Z,88.83
2017-07-25T00:51:12.717Z,89.45
2017-07-25T00:51:53.608Z,89.83
2017-07-25T00:52:34.499Z,88.59
2017-07-25T00:53:15.391Z,89.93
2017-07-25T00:53:56.283Z,89.22
2017-07-25T00:54:37.175Z,88.83
2017-07-25T00:55:18.083Z,88.45
2017-07-25T00:55:58.983Z,88.87
2017-07-25T00:56:39.879Z,89.69
2017-07-25T00:57:20.780Z,88.87
2017-07-25T00:58:01.658Z,88.64
2017-07-25T00:58:42.530Z,89.69
2017-07-25T00:59:23.420Z,89.83
2017-07-25T01:00:04.325Z,89.54
2017-07-25T01:00:45.219Z,88.35
2017-07-25T01:01:26.110Z,88.97
2017-07-25T01:02:07.005Z,88.83
2017-07-25T01:02:47.894Z,88.64
2017-07-25T01:03:28.787Z,88.39
2017-07-25T01:04:09.680Z,87.39
2017-07-25T01:04:50.569Z,87.58
2017-07-25T01:05:31.466Z,88.54
2017-07-25T01:06:12.357Z,88.16
2017-07-25T01:06:53.238Z,88.16
2017-07-25T01:07:34.128Z,87.49
2017-07-25T01:08:15.047Z,88.25
2017-07-25T01:08:55.935Z,87.96
2017-07-25T01:09:36.830Z,88.83
2017-07-25T01:10:17.757Z,88.64
2017-07-25T01:10:58.648Z,88.93
2017-07-25T01:11:39.543Z,88.25
2017-07-25T01:12:20.428Z,88.45
2017-07-25T01:13:01.327Z,88.64
2017-07-25T01:13:42.216Z,88.93
2017-07-25T01:14:23.108Z,88.64
2017-07-25T01:15:04.005Z,88.83
2017-07-25T01:15:44.904Z,89.69
2017-07-25T01:16:25.793Z,89.4
2017-07-25T01:17:06.686Z,88.45
2017-07-25T01:17:47.576Z,88.64
2017-07-25T01:18:28.456Z,87.96
2017-07-25T01:19:09.354Z,88.35
2017-07-25T01:19:50.244Z,87.87
2017-07-25T01:20:31.162Z,88.25
2017-07-25T01:21:12.038Z,88.83
2017-07-25T01:21:52.926Z,88.25
2017-07-25T01:22:33.814Z,88.35
2017-07-25T01:23:14.709Z,88.54
2017-07-25T01:23:55.600Z,88.06
2017-07-25T01:24:36.488Z,88.54
2017-07-25T01:25:17.382Z,88.35
2017-07-25T01:25:58.276Z,89.5
2017-07-25T01:26:39.168Z,88.64
2017-07-25T01:27:20.064Z,88.64
2017-07-25T01:28:00.980Z,89.02
2017-07-25T01:28:41.877Z,88.83
2017-07-25T01:29:22.801Z,88.45
2017-07-25T01:30:03.670Z,88.35
2017-07-25T01:30:44.567Z,87.96
2017-07-25T01:31:25.458Z,87.63
2017-07-25T01:32:06.361Z,87.96
2017-07-25T01:32:47.250Z,87.63
2017-07-25T01:33:28.240Z,87.25
2017-07-25T01:34:09.124Z,87.54
2017-07-25T01:34:50.017Z,87.35
2017-07-25T01:35:30.897Z,86.77
2017-07-25T01:36:11.786Z,86.87
2017-07-25T01:36:52.681Z,86.87
2017-07-25T01:37:33.596Z,87.35
2017-07-25T01:38:14.462Z,87.29
2017-07-25T01:38:55.364Z,88.59
2017-07-25T01:39:36.249Z,88.16
2017-07-25T01:40:17.133Z,88.79
2017-07-25T01:40:58.021Z,88.73
2017-07-25T01:41:38.913Z,89.02
2017-07-25T01:42:19.790Z,89.6
2017-07-25T01:43:00.688Z,89.22
2017-07-25T01:43:41.589Z,89.5
2017-07-25T01:44:22.460Z,88.93
2017-07-25T01:45:03.349Z,88.83
2017-07-25T01:45:44.270Z,88.79
2017-07-25T01:46:25.160Z,88.59
2017-07-25T01:47:06.055Z,88.73
2017-07-25T01:47:46.947Z,89.89
2017-07-25T01:48:27.840Z,89.79
2017-07-25T01:49:08.730Z,89.36
2017-07-25T01:49:49.622Z,89.02
2017-07-25T01:50:30.511Z,89.6
2017-07-25T01:51:11.398Z,89.31
2017-07-25T01:51:52.285Z,88.64
2017-07-25T01:52:33.168Z,88.64
2017-07-25T01:53:14.063Z,88.83
2017-07-25T01:53:54.957Z,88.83
2017-07-25T01:54:35.866Z,88.93
2017-07-25T01:55:16.760Z,88.83
2017-07-25T01:55:57.651Z,88.83
2017-07-25T01:56:38.540Z,89.4
2017-07-25T01:57:19.423Z,89.6
2017-07-25T01:58:00.314Z,88.88
2017-07-25T01:58:41.208Z,87.73
2017-07-25T01:59:22.109Z,88.59
2017-07-25T02:00:03.003Z,87.73
2017-07-25T02:00:43.922Z,87.92
2017-07-25T02:01:24.820Z,88.4
2017-07-25T02:02:05.715Z,87.35
2017-07-25T02:02:46.631Z,88.49
2017-07-25T02:03:27.504Z,88.79
2017-07-25T02:04:08.392Z,87.05
2017-07-25T02:04:49.282Z,87.35
2017-07-25T02:05:30.159Z,87.01
2017-07-25T02:06:11.060Z,86.63
2017-07-25T02:06:51.947Z,86.82
2017-07-25T02:07:32.831Z,87.4
2017-07-25T02:08:13.705Z,86.82
2017-07-25T02:08:54.615Z,86.72
2017-07-25T02:09:35.514Z,87.01
2017-07-25T02:10:16.391Z,87.3
2017-07-25T02:10:57.283Z,86.92
2017-07-25T02:11:38.168Z,87.21
2017-07-25T02:12:19.070Z,86.72
2017-07-25T02:12:59.959Z,86.72
2017-07-25T02:13:40.860Z,86.82
2017-07-25T02:14:21.742Z,87.49
2017-07-25T02:15:02.626Z,87.01
2017-07-25T02:15:43.517Z,86.92
2017-07-25T02:16:24.404Z,86.63
2017-07-25T02:17:05.295Z,86.82
2017-07-25T02:17:46.194Z,86.82
2017-07-25T02:18:27.098Z,86.92
2017-07-25T02:19:07.986Z,86.44
2017-07-25T02:19:48.874Z,86.54
2017-07-25T02:20:29.762Z,86.54
2017-07-25T02:21:10.660Z,86.54
2017-07-25T02:21:51.546Z,87.01
2017-07-25T02:22:32.431Z,87.3
2017-07-25T02:23:13.324Z,86.92
2017-07-25T02:23:54.219Z,86.82
2017-07-25T02:24:35.117Z,86.82
2017-07-25T02:25:16.002Z,86.92
2017-07-25T02:25:56.898Z,86.92
2017-07-25T02:26:37.783Z,86.82
2017-07-25T02:27:18.661Z,87.4
2017-07-25T02:27:59.552Z,87.49
2017-07-25T02:28:40.449Z,86.92
2017-07-25T02:29:21.338Z,87.01
2017-07-25T02:30:02.230Z,86.82
2017-07-25T02:30:43.128Z,87.11
2017-07-25T02:31:24.025Z,86.92
2017-07-25T02:32:04.924Z,86.05
2017-07-25T02:32:45.813Z,85.38
2017-07-25T02:33:26.716Z,85.77
2017-07-25T02:34:07.599Z,85.86
2017-07-25T02:34:48.491Z,85.67
2017-07-25T02:35:29.377Z,85.58
2017-07-25T02:36:10.273Z,85.67
2017-07-25T02:36:51.158Z,85.86
2017-07-25T02:37:32.053Z,86.54
2017-07-25T02:38:12.953Z,86.54
2017-07-25T02:38:53.839Z,86.15
2017-07-25T02:39:34.728Z,86.15
2017-07-25T02:40:15.614Z,85.96
2017-07-25T02:40:56.526Z,86.05
2017-07-25T02:41:37.422Z,85.96
2017-07-25T02:42:18.314Z,85.96
2017-07-25T02:42:59.195Z,86.25
2017-07-25T02:43:40.095Z,86.11
2017-07-25T02:44:20.989Z,85.86
2017-07-25T02:45:01.873Z,85.82
2017-07-25T02:45:42.772Z,85.67
2017-07-25T02:46:23.669Z,85.92
2017-07-25T02:47:04.562Z,85.96
2017-07-25T02:47:45.447Z,86.01
2017-07-25T02:48:26.351Z,85.58
2017-07-25T02:49:07.252Z,86.54
2017-07-25T02:49:48.144Z,86.63
2017-07-25T02:50:29.074Z,85.77
2017-07-25T02:51:09.945Z,86.34
2017-07-25T02:51:50.841Z,86.25
2017-07-25T02:52:31.743Z,86.54
2017-07-25T02:53:12.635Z,86.44
2017-07-25T02:53:53.528Z,86.34
2017-07-25T02:54:34.416Z,86.92
2017-07-25T02:55:15.313Z,87.68
2017-07-25T02:55:56.206Z,86.82
2017-07-25T02:56:37.094Z,87.4
2017-07-25T02:57:17.996Z,87.3
2017-07-25T02:57:58.890Z,87.21
2017-07-25T02:58:39.777Z,86.72
2017-07-25T02:59:20.681Z,87.11
2017-07-25T03:00:01.568Z,86.44
2017-07-25T03:00:42.440Z,86.54
2017-07-25T03:01:23.329Z,86.44
2017-07-25T03:02:04.220Z,86.82
2017-07-25T03:02:45.108Z,86.82
2017-07-25T03:03:25.992Z,86.82
2017-07-25T03:04:06.890Z,86.4
2017-07-25T03:04:47.777Z,85.72
2017-07-25T03:05:28.672Z,85.77
2017-07-25T03:06:09.572Z,85.77
2017-07-25T03:06:50.463Z,85.67
2017-07-25T03:07:31.354Z,86.05
2017-07-25T03:08:12.260Z,86.15
2017-07-25T03:08:53.226Z,86.25
2017-07-25T03:09:34.100Z,86.54
2017-07-25T03:10:14.982Z,86.25
2017-07-25T03:10:55.876Z,86.34
2017-07-25T03:11:36.752Z,86.3
2017-07-25T03:12:17.642Z,86.3
2017-07-25T03:12:58.532Z,85.82
2017-07-25T03:13:39.423Z,85.53
2017-07-25T03:14:20.321Z,85.72
2017-07-25T03:15:01.215Z,85.34
2017-07-25T03:15:42.128Z,85.34
2017-07-25T03:16:23.038Z,84.95
2017-07-25T03:17:03.921Z,85.05
2017-07-25T03:17:44.814Z,84.86
2017-07-25T03:18:25.700Z,85.05
2017-07-25T03:19:06.591Z,84.86
2017-07-25T03:19:47.488Z,84.77
2017-07-25T03:20:28.390Z,84.77
2017-07-25T03:21:09.289Z,84.77
2017-07-25T03:21:50.160Z,84.86
2017-07-25T03:22:31.044Z,84.67
2017-07-25T03:23:11.931Z,84.67
2017-07-25T03:23:52.839Z,84.67
2017-07-25T03:24:33.735Z,84.63
2017-07-25T03:25:14.627Z,84.72
2017-07-25T03:25:55.514Z,84.67
2017-07-25T03:26:36.406Z,84.48
2017-07-25T03:27:17.303Z,84.19
2017-07-25T03:27:58.204Z,84.67
2017-07-25T03:28:39.089Z,84.38
2017-07-25T03:29:19.981Z,84.09
2017-07-25T03:30:00.866Z,84
2017-07-25T03:30:41.765Z,84.77
2017-07-25T03:31:22.653Z,84
2017-07-25T03:32:03.542Z,84.48
2017-07-25T03:32:44.441Z,84
2017-07-25T03:33:25.337Z,84.09
2017-07-25T03:34:06.232Z,84.19
2017-07-25T03:34:47.126Z,84.82
2017-07-25T03:35:28.020Z,84.72
2017-07-25T03:36:08.914Z,84.77
2017-07-25T03:36:49.802Z,84
2017-07-25T03:37:30.711Z,84.67
2017-07-25T03:38:11.590Z,83.95
2017-07-25T03:38:52.483Z,84.34
2017-07-25T03:39:33.375Z,83.86
2017-07-25T03:40:14.280Z,84.15
2017-07-25T03:40:55.184Z,84.05
2017-07-25T03:41:36.061Z,84.15
2017-07-25T03:42:16.942Z,84.15
2017-07-25T03:42:57.833Z,83.58
2017-07-25T03:43:38.720Z,84.19
2017-07-25T03:44:19.611Z,84.25
2017-07-25T03:45:00.525Z,83.76
2017-07-25T03:45:41.406Z,83.76
2017-07-25T03:46:22.294Z,83.76
2017-07-25T03:47:03.222Z,84.25
2017-07-25T03:47:44.104Z,83.95
2017-07-25T03:48:25.000Z,84.15
2017-07-25T03:49:05.901Z,83.76
2017-07-25T03:49:46.790Z,84.53
2017-07-25T03:50:27.675Z,84.15
2017-07-25T03:51:08.575Z,83.95
2017-07-25T03:51:49.466Z,84.09
2017-07-25T03:52:30.354Z,84.09
2017-07-25T03:53:11.251Z,83.61
2017-07-25T03:53:52.134Z,83.42
2017-07-25T03:54:33.027Z,83.91
2017-07-25T03:55:13.919Z,84.48
2017-07-25T03:55:54.801Z,83.81
2017-07-25T03:56:35.689Z,84
2017-07-25T03:57:16.579Z,83.91
2017-07-25T03:57:57.467Z,84.28
2017-07-25T03:58:38.363Z,84.38
2017-07-25T03:59:19.261Z,84.48
2017-07-25T04:00:00.149Z,83.91
2017-07-25T04:00:41.037Z,84
2017-07-25T04:01:21.944Z,84.28
2017-07-25T04:02:02.816Z,84.19
2017-07-25T04:02:43.701Z,84.15
2017-07-25T04:03:24.590Z,84.48
2017-07-25T04:04:05.480Z,83.95
2017-07-25T04:04:46.376Z,84.38
2017-07-25T04:05:27.267Z,83.81
2017-07-25T04:06:08.170Z,83.95
2017-07-25T04:06:49.053Z,84.15
2017-07-25T04:07:29.941Z,83.86
2017-07-25T04:08:10.825Z,84.38
2017-07-25T04:08:51.719Z,84.44
2017-07-25T04:09:32.620Z,84.09
2017-07-25T04:10:13.522Z,84.48
2017-07-25T04:10:54.415Z,83.95
2017-07-25T04:11:35.307Z,84.05
2017-07-25T04:12:16.201Z,84.09
2017-07-25T04:12:57.095Z,83.91
2017-07-25T04:13:37.988Z,84.58
2017-07-25T04:14:18.882Z,84.86
2017-07-25T04:14:59.772Z,83.86
2017-07-25T04:15:40.658Z,84.25
2017-07-25T04:16:21.550Z,83.95
2017-07-25T04:17:02.443Z,84.15
2017-07-25T04:17:43.341Z,84.19
2017-07-25T04:18:24.236Z,83.95
2017-07-25T04:19:05.125Z,83.86
2017-07-25T04:19:46.650Z,83.67
2017-07-25T04:20:27.540Z,83.81
2017-07-25T04:21:08.429Z,84.34
2017-07-25T04:21:49.330Z,83.95
2017-07-25T04:22:30.222Z,84.25
2017-07-25T04:23:11.103Z,83.95
2017-07-25T04:23:52.021Z,84.25
2017-07-25T04:24:32.902Z,84.09
2017-07-25T04:25:13.793Z,84.05
2017-07-25T04:25:54.685Z,84.34
2017-07-25T04:26:35.581Z,84.48
2017-07-25T04:27:16.495Z,83.61
2017-07-25T04:27:57.377Z,83.42
2017-07-25T04:28:38.285Z,84.34
2017-07-25T04:29:19.171Z,83.67
2017-07-25T04:30:00.050Z,84.15
2017-07-25T04:30:40.961Z,84.34
2017-07-25T04:31:21.871Z,83.86
2017-07-25T04:32:02.740Z,84.34
2017-07-25T04:32:43.643Z,83.86
2017-07-25T04:33:24.534Z,84.44
2017-07-25T04:34:05.430Z,83.29
2017-07-25T04:34:46.317Z,83.58
2017-07-25T04:35:27.215Z,83.09
2017-07-25T04:36:08.100Z,83.14
2017-07-25T04:36:48.998Z,83.14
2017-07-25T04:37:29.883Z,84
2017-07-25T04:38:10.767Z,84.58
2017-07-25T04:38:51.664Z,84.48
2017-07-25T04:39:32.547Z,84
2017-07-25T04:40:13.440Z,84.38
2017-07-25T04:40:54.332Z,84.09
2017-07-25T04:41:35.238Z,84.28
2017-07-25T04:42:16.121Z,84
2017-07-25T04:42:57.017Z,84
2017-07-25T04:43:37.910Z,84.95
2017-07-25T04:44:18.797Z,84.67
2017-07-25T04:44:59.684Z,84.86
2017-07-25T04:45:40.577Z,84.67
2017-07-25T04:46:21.467Z,84.77
2017-07-25T04:47:02.368Z,85.25
2017-07-25T04:47:43.251Z,84.95
2017-07-25T04:48:24.138Z,84.77
2017-07-25T04:49:05.035Z,84.86
2017-07-25T04:49:45.948Z,84.19
2017-07-25T04:50:26.837Z,84.58
2017-07-25T04:51:07.733Z,84.67
2017-07-25T04:51:48.634Z,84.09
2017-07-25T04:52:29.512Z,84.58
2017-07-25T04:53:10.407Z,84.86
2017-07-25T04:53:51.298Z,84.77
2017-07-25T04:54:32.191Z,84.77
2017-07-25T04:55:13.086Z,85.34
2017-07-25T04:55:53.979Z,86.15
2017-07-25T04:56:34.875Z,85.53
2017-07-25T04:57:15.777Z,86.01
2017-07-25T04:57:56.670Z,85.92
2017-07-25T04:58:37.564Z,85.53
2017-07-25T04:59:18.458Z,85.44
2017-07-25T04:59:59.351Z,84.95
2017-07-25T05:00:40.257Z,85.44
2017-07-25T05:01:21.158Z,85.53
2017-07-25T05:02:02.025Z,85.05
2017-07-25T05:02:42.917Z,84.77
2017-07-25T05:03:23.805Z,85.05
2017-07-25T05:04:04.682Z,84.86
2017-07-25T05:06:03.544Z,84
2017-07-25T05:06:44.432Z,84.19
2017-07-25T05:07:25.328Z,84.86
2017-07-25T05:08:06.218Z,84.86
2017-07-25T05:08:47.104Z,84.86
2017-07-25T05:09:27.988Z,85.05
2017-07-25T05:10:08.870Z,85.15
2017-07-25T05:10:49.760Z,85.34
2017-07-25T05:11:30.640Z,85.05
2017-07-25T05:12:11.516Z,85.05
2017-07-25T05:12:52.400Z,85.34
2017-07-25T05:13:33.287Z,84.67
2017-07-25T05:14:14.168Z,84.58
2017-07-25T05:14:55.080Z,84.09
2017-07-25T05:15:35.968Z,84.67
2017-07-25T05:16:16.854Z,84.38
2017-07-25T05:16:57.731Z,84.86
2017-07-25T05:17:38.616Z,84.58
2017-07-25T05:18:19.497Z,84.67
2017-07-25T05:19:00.381Z,85.34
2017-07-25T05:19:41.262Z,85.53
2017-07-25T05:20:22.146Z,85.82
2017-07-25T05:21:03.031Z,85.44
2017-07-25T05:21:43.951Z,86.21
2017-07-25T05:22:24.852Z,85.34
2017-07-25T05:23:05.738Z,85.82
2017-07-25T05:23:46.618Z,86.3
2017-07-25T05:24:27.505Z,85.25
2017-07-25T05:25:08.407Z,85.53
2017-07-25T05:25:49.305Z,85.53
2017-07-25T05:26:30.190Z,85.25
2017-07-25T05:27:11.085Z,85.39
2017-07-25T05:27:51.963Z,85.01
2017-07-25T05:28:32.879Z,84.91
2017-07-25T05:29:13.771Z,84.44
2017-07-25T05:29:54.697Z,84.91
2017-07-25T05:30:35.584Z,84.72
2017-07-25T05:31:16.564Z,84.82
2017-07-25T05:31:57.373Z,85.01
2017-07-25T05:32:38.255Z,85.49
2017-07-25T05:33:19.142Z,85.63
2017-07-25T05:34:00.064Z,85.92
2017-07-25T05:34:40.940Z,86.07
2017-07-25T05:35:21.862Z,85.97
2017-07-25T05:36:02.747Z,86.16
2017-07-25T05:36:43.631Z,86.64
2017-07-25T05:37:24.526Z,86.25
2017-07-25T05:38:05.419Z,86.07
2017-07-25T05:38:46.310Z,86.25
2017-07-25T05:39:27.195Z,86.35
2017-07-25T05:40:08.094Z,86.07
2017-07-25T05:40:48.978Z,86.45
2017-07-25T05:41:29.834Z,86.45
2017-07-25T05:42:10.721Z,86.07
2017-07-25T05:42:51.626Z,86.54
2017-07-25T05:43:32.502Z,86.93
2017-07-25T05:44:13.375Z,85.88
2017-07-25T05:44:54.320Z,86.35
2017-07-25T05:45:35.186Z,86.74
2017-07-25T05:46:16.075Z,87.12
2017-07-25T05:46:56.957Z,87.02
2017-07-25T05:47:37.842Z,86.74
2017-07-25T05:48:18.718Z,86.16
2017-07-25T05:48:59.608Z,87.07
2017-07-25T05:49:40.524Z,87.12
2017-07-25T05:50:21.387Z,87.7
2017-07-25T05:51:02.252Z,87.7
2017-07-25T05:51:43.140Z,87.21
2017-07-25T05:52:24.038Z,87.02
2017-07-25T05:53:04.921Z,86.35
2017-07-25T05:53:45.791Z,87.31
2017-07-25T05:54:26.681Z,87.02
2017-07-25T05:55:07.586Z,87.02
2017-07-25T05:55:48.467Z,86.16
2017-07-25T05:56:29.354Z,85.88
2017-07-25T05:57:10.258Z,85.97
2017-07-25T05:57:51.139Z,86.54
2017-07-25T05:58:32.024Z,87.21
2017-07-25T05:59:12.917Z,86.45
2017-07-25T05:59:53.803Z,86.64
2017-07-25T06:00:34.673Z,86.07
2017-07-25T06:01:15.560Z,86.45
2017-07-25T06:01:56.448Z,86.54
2017-07-25T06:02:37.332Z,86.4
2017-07-25T06:03:18.205Z,86.93
2017-07-25T06:03:59.096Z,87.35
2017-07-25T06:04:40.089Z,87.16
2017-07-25T06:06:33.748Z,87.6
2017-07-25T06:07:14.643Z,87.98
2017-07-25T06:07:55.530Z,87.6
2017-07-25T06:08:36.425Z,87.12
2017-07-25T06:09:17.301Z,86.74
2017-07-25T06:09:58.178Z,86.93
2017-07-25T06:10:39.067Z,86.35
2017-07-25T06:11:19.963Z,86.25
2017-07-25T06:12:00.855Z,86.07
2017-07-25T06:12:41.744Z,86.93
2017-07-25T06:13:22.644Z,86.74
2017-07-25T06:14:03.529Z,86.54
2017-07-25T06:14:44.409Z,86.45
2017-07-25T06:15:25.339Z,86.93
2017-07-25T06:16:06.216Z,87.31
2017-07-25T06:16:47.108Z,87.16
2017-07-25T06:17:28.001Z,87.6
2017-07-25T06:18:08.903Z,87.5
2017-07-25T06:18:49.799Z,87.79
2017-07-25T06:20:28.205Z,87.98
2017-07-25T06:21:09.092Z,87.31
2017-07-25T06:21:49.981Z,87.02
2017-07-25T06:22:30.865Z,86.64
2017-07-25T06:23:11.753Z,87.79
2017-07-25T06:23:52.660Z,87.02
2017-07-25T06:24:33.539Z,87.79
2017-07-25T06:25:14.440Z,86.74
2017-07-25T06:25:55.328Z,85.88
2017-07-25T06:26:36.217Z,85.78
2017-07-25T06:27:17.108Z,85.88
2017-07-25T06:27:57.997Z,85.97
2017-07-25T06:28:38.885Z,87.12
2017-07-25T06:29:19.778Z,86.64
2017-07-25T06:30:00.669Z,86.74
2017-07-25T06:30:41.554Z,86.83
2017-07-25T06:31:22.438Z,86.16
2017-07-25T06:32:03.355Z,86.45
2017-07-25T06:32:44.234Z,87.79
2017-07-25T06:33:25.119Z,88.17
2017-07-25T06:34:06.016Z,87.5
2017-07-25T06:34:46.899Z,87.21
2017-07-25T06:35:27.793Z,86.64
2017-07-25T06:36:08.678Z,86.45
2017-07-25T06:36:49.572Z,87.21
2017-07-25T06:37:30.485Z,86.74
2017-07-25T06:38:11.379Z,86.74
2017-07-25T06:38:52.276Z,86.64
2017-07-25T06:39:33.174Z,86.35
2017-07-25T06:40:14.064Z,86.45
2017-07-25T06:40:54.995Z,87.12
2017-07-25T06:41:35.885Z,87.02
2017-07-25T06:42:16.768Z,86.83
2017-07-25T06:42:57.664Z,86.93
2017-07-25T06:43:38.559Z,87.12
2017-07-25T06:44:19.455Z,87.26
2017-07-25T06:45:00.352Z,87.07
2017-07-25T06:45:41.244Z,87.74
2017-07-25T06:46:22.121Z,87.74
2017-07-25T06:47:03.013Z,87.21
2017-07-25T06:47:43.894Z,87.26
2017-07-25T06:48:24.778Z,87.21
2017-07-25T06:49:05.666Z,87.45
2017-07-25T06:49:46.558Z,87.41
2017-07-25T06:50:27.450Z,86.93
2017-07-25T06:51:08.333Z,87.35
2017-07-25T06:51:49.235Z,88.51
2017-07-25T06:52:30.111Z,88.79
2017-07-25T06:53:11.030Z,88.6
2017-07-25T06:53:51.918Z,87.93
2017-07-25T06:54:32.809Z,88.12
2017-07-25T06:55:13.697Z,89.42
2017-07-25T06:55:54.597Z,88.75
2017-07-25T06:56:35.480Z,88.37
2017-07-25T06:57:16.385Z,88.7
2017-07-25T06:57:57.280Z,88.27
2017-07-25T06:58:38.179Z,87.88
2017-07-25T06:59:19.070Z,89.23
2017-07-25T06:59:59.954Z,88.75
2017-07-25T07:00:40.858Z,88.37
2017-07-25T07:01:21.749Z,88.46
2017-07-25T07:02:02.643Z,88.98
2017-07-25T07:02:43.546Z,88.98
2017-07-25T07:03:24.421Z,88.51
2017-07-25T07:04:05.301Z,88.89
2017-07-25T07:04:46.183Z,89.47
2017-07-25T07:05:27.107Z,88.51
2017-07-25T07:06:07.994Z,89.32
2017-07-25T07:06:48.888Z,88.6
2017-07-25T07:07:29.782Z,88.75
2017-07-25T07:08:10.678Z,88.37
2017-07-25T07:08:51.559Z,88.17
2017-07-25T07:09:32.467Z,88.17
2017-07-25T07:10:13.350Z,88.37
2017-07-25T07:10:54.233Z,88.37
2017-07-25T07:11:35.124Z,88.94
2017-07-25T07:12:16.003Z,88.75
2017-07-25T07:12:56.886Z,88.41
2017-07-25T07:13:37.776Z,88.46
2017-07-25T07:14:18.671Z,87.55
2017-07-25T07:14:59.562Z,88.41
2017-07-25T07:15:40.447Z,89.85
2017-07-25T07:16:21.333Z,89.27
2017-07-25T07:17:02.234Z,88.98
2017-07-25T07:17:43.123Z,89.13
2017-07-25T07:18:24.008Z,89.94
2017-07-25T07:19:04.891Z,88.94
2017-07-25T07:19:45.786Z,89.08
2017-07-25T07:20:26.684Z,88.22
2017-07-25T07:21:07.580Z,88.51
2017-07-25T07:21:48.473Z,88.89
2017-07-25T07:22:29.362Z,88.79
2017-07-25T07:23:10.262Z,88.89
2017-07-25T07:23:51.154Z,88.51
2017-07-25T07:24:32.044Z,88.65
2017-07-25T07:25:12.938Z,88.17
2017-07-25T07:25:53.832Z,87.7
2017-07-25T07:26:34.718Z,88.37
2017-07-25T07:27:15.609Z,88.65
2017-07-25T07:27:56.503Z,89.42
2017-07-25T07:28:37.392Z,88.37
2017-07-25T07:29:18.290Z,87.7
2017-07-25T07:29:59.179Z,88.84
2017-07-25T07:30:40.074Z,88.56
2017-07-25T07:31:20.964Z,88.65
2017-07-25T07:32:01.852Z,88.89
2017-07-25T07:32:42.743Z,88.89
2017-07-25T07:33:23.626Z,89.27
2017-07-25T07:34:04.507Z,89.56
2017-07-25T07:34:45.418Z,88.56
2017-07-25T07:35:26.303Z,88.65
2017-07-25T07:36:07.187Z,89.23
2017-07-25T07:36:48.081Z,89.9
2017-07-25T07:37:28.970Z,88.37
2017-07-25T07:38:09.857Z,88.65
2017-07-25T07:38:50.742Z,89.23
2017-07-25T07:39:31.636Z,89.61
2017-07-25T07:40:12.527Z,88.94
2017-07-25T07:40:53.421Z,88.56
2017-07-25T07:41:34.308Z,88.94
2017-07-25T07:42:15.204Z,88.56
2017-07-25T07:42:56.096Z,88.56
2017-07-25T07:43:36.986Z,88.37
2017-07-25T07:44:17.875Z,88.17
2017-07-25T07:44:58.773Z,88.46
2017-07-25T07:45:39.666Z,89.23
2017-07-25T07:46:20.549Z,90.09
2017-07-25T07:47:01.445Z,89.71
2017-07-25T07:47:42.333Z,89.8
2017-07-25T07:48:23.238Z,89.51
2017-07-25T07:49:04.125Z,89.51
2017-07-25T07:49:45.008Z,90.86
2017-07-25T07:50:25.905Z,89.9
2017-07-25T07:51:06.796Z,89.9
2017-07-25T07:51:47.682Z,90
2017-07-25T07:52:28.584Z,90.95
2017-07-25T07:53:09.474Z,89.71
2017-07-25T07:53:50.360Z,88.46
2017-07-25T07:54:31.251Z,90.57
2017-07-25T07:55:12.138Z,89.71
2017-07-25T07:55:53.033Z,89.42
2017-07-25T07:56:33.911Z,89.23
2017-07-25T07:57:14.794Z,90.28
2017-07-25T07:57:55.681Z,89.51
2017-07-25T07:58:36.571Z,89.71
2017-07-25T07:59:17.464Z,91.72
2017-07-25T07:59:58.360Z,90.86
2017-07-25T08:00:39.246Z,91.43
2017-07-25T08:01:20.153Z,90.28
2017-07-25T08:02:01.044Z,89.9
2017-07-25T08:02:41.937Z,89.94
2017-07-25T08:03:22.841Z,90.71
2017-07-25T08:04:03.733Z,90.81
2017-07-25T08:04:45.564Z,90.14
2017-07-25T08:05:26.465Z,90.95
2017-07-25T08:06:07.376Z,90.47
2017-07-25T08:06:48.276Z,91.24
2017-07-25T08:07:29.168Z,90.67
2017-07-25T08:08:10.056Z,91
2017-07-25T08:08:50.945Z,90.33
2017-07-25T08:09:31.850Z,91.28
2017-07-25T08:10:12.734Z,91.82
2017-07-25T08:10:53.655Z,90.86
2017-07-25T08:11:34.546Z,91.53
2017-07-25T08:12:15.443Z,91.24
2017-07-25T08:12:56.325Z,91.09
2017-07-25T08:13:37.218Z,91.28
2017-07-25T08:14:18.121Z,92.15
2017-07-25T08:14:59.013Z,92.15
2017-07-25T08:15:39.915Z,91.19
2017-07-25T08:16:20.854Z,90.57
2017-07-25T08:17:01.700Z,90.28
2017-07-25T08:17:42.587Z,90
2017-07-25T08:18:23.487Z,90.57
2017-07-25T08:19:04.366Z,89.42
2017-07-25T08:19:45.244Z,90.09
2017-07-25T08:20:26.147Z,90.86
2017-07-25T08:21:07.049Z,90.76
2017-07-25T08:21:47.940Z,90.47
2017-07-25T08:22:28.830Z,91.19
2017-07-25T08:23:09.739Z,91
2017-07-25T08:23:50.623Z,92.49
2017-07-25T08:24:31.511Z,92.54
2017-07-25T08:25:12.404Z,92.15
2017-07-25T08:25:53.288Z,92.15
2017-07-25T08:26:34.177Z,92.82
2017-07-25T08:27:15.070Z,92.63
2017-07-25T08:27:55.956Z,92.63
2017-07-25T08:28:36.840Z,92.82
2017-07-25T08:29:17.742Z,92.72
2017-07-25T08:29:58.629Z,92.63
2017-07-25T08:30:39.516Z,91.38
2017-07-25T08:31:20.417Z,91.91
2017-07-25T08:32:01.309Z,92.1
2017-07-25T08:32:42.183Z,91.63
2017-07-25T08:33:23.068Z,92.05
2017-07-25T08:34:03.957Z,91.24
2017-07-25T08:34:44.855Z,91.67
2017-07-25T08:35:25.740Z,91.67
2017-07-25T08:36:06.650Z,91.14
2017-07-25T08:36:47.534Z,92.3
2017-07-25T08:37:28.420Z,92.82
2017-07-25T08:38:09.338Z,91.53
2017-07-25T08:38:50.242Z,92.63
2017-07-25T08:39:31.161Z,92.72
2017-07-25T08:40:12.067Z,92.91
2017-07-25T08:40:52.964Z,92.91
2017-07-25T08:41:33.849Z,93.25
2017-07-25T08:42:14.733Z,91.96
2017-07-25T08:42:55.618Z,92.05
2017-07-25T08:43:36.503Z,92.44
2017-07-25T08:44:17.407Z,92.54
2017-07-25T08:44:58.294Z,91.91
2017-07-25T08:45:39.196Z,90.81
2017-07-25T08:46:20.081Z,92.87
2017-07-25T08:47:00.969Z,91.34
2017-07-25T08:47:41.863Z,90.95
2017-07-25T08:48:22.739Z,89.42
2017-07-25T08:49:03.630Z,90.57
2017-07-25T08:49:44.529Z,91.28
2017-07-25T08:50:25.435Z,90.23
2017-07-25T08:51:06.324Z,91.86
2017-07-25T08:51:47.250Z,91.63